sensor_id;sensor_type;location;lat;lon;timestamp;temperature;humidity
42145;DHT22;27813;43.516;11.890;2023-08-06T04:33:23;12.20;91.60
42145;DHT22;27813;43.516;11.890;2023-08-06T04:37:28;12.20;91.60
42145;DHT22;27813;43.516;11.890;2023-08-06T04:41:32;12.30;91.60
42145;DHT22;27813;43.516;11.890;2023-08-06T04:45:36;12.30;91.60
42145;DHT22;27813;43.516;11.890;2023-08-06T04:49:40;12.40;91.50
42145;DHT22;27813;43.516;11.890;2023-08-06T04:53:44;12.80;92.80
42145;DHT22;27813;43.516;11.890;2023-08-06T04:57:48;14.20;90.30
42145;DHT22;27813;43.516;11.890;2023-08-06T05:01:52;15.50;86.70
42145;DHT22;27813;43.516;11.890;2023-08-06T05:05:56;15.90;85.50
42145;DHT22;27813;43.516;11.890;2023-08-06T05:10:00;16.90;83.90
42145;DHT22;27813;43.516;11.890;2023-08-06T05:14:04;18.10;81.50
42145;DHT22;27813;43.516;11.890;2023-08-06T05:18:08;19.10;79.10
42145;DHT22;27813;43.516;11.890;2023-08-06T05:22:12;20.00;77.60
42145;DHT22;27813;43.516;11.890;2023-08-06T05:26:16;20.70;76.00
42145;DHT22;27813;43.516;11.890;2023-08-06T05:30:23;21.30;74.60
42145;DHT22;27813;43.516;11.890;2023-08-06T05:34:27;20.50;75.40
42145;DHT22;27813;43.516;11.890;2023-08-06T05:38:31;19.40;78.20
42145;DHT22;27813;43.516;11.890;2023-08-06T05:42:34;18.90;80.00
42145;DHT22;27813;43.516;11.890;2023-08-06T05:46:38;18.90;81.10
42145;DHT22;27813;43.516;11.890;2023-08-06T05:50:42;19.50;80.20
42145;DHT22;27813;43.516;11.890;2023-08-06T05:54:46;20.20;79.20
42145;DHT22;27813;43.516;11.890;2023-08-06T05:58:50;21.50;75.80
42145;DHT22;27813;43.516;11.890;2023-08-06T06:02:56;22.50;73.80
42145;DHT22;27813;43.516;11.890;2023-08-06T06:07:00;23.40;72.20
42145;DHT22;27813;43.516;11.890;2023-08-06T06:11:04;23.80;71.40
42145;DHT22;27813;43.516;11.890;2023-08-06T06:15:08;24.10;71.40
42145;DHT22;27813;43.516;11.890;2023-08-06T06:19:12;25.10;70.00
42145;DHT22;27813;43.516;11.890;2023-08-06T06:23:16;25.90;68.40
42145;DHT22;27813;43.516;11.890;2023-08-06T06:27:20;25.00;70.30
42145;DHT22;27813;43.516;11.890;2023-08-06T06:31:24;23.90;73.50
42145;DHT22;27813;43.516;11.890;2023-08-06T06:35:28;24.80;72.40
42145;DHT22;27813;43.516;11.890;2023-08-06T06:39:33;26.20;69.10
42145;DHT22;27813;43.516;11.890;2023-08-06T06:43:37;27.30;66.30
42145;DHT22;27813;43.516;11.890;2023-08-06T06:47:44;28.20;63.80
42145;DHT22;27813;43.516;11.890;2023-08-06T06:51:48;28.80;62.10
42145;DHT22;27813;43.516;11.890;2023-08-06T06:55:51;29.30;60.10
42145;DHT22;27813;43.516;11.890;2023-08-06T06:59:55;29.40;58.70
42145;DHT22;27813;43.516;11.890;2023-08-06T07:03:59;28.50;60.30
42145;DHT22;27813;43.516;11.890;2023-08-06T07:08:08;26.80;64.10
42145;DHT22;27813;43.516;11.890;2023-08-06T07:12:12;25.40;67.70
42145;DHT22;27813;43.516;11.890;2023-08-06T07:16:16;24.50;69.90
42145;DHT22;27813;43.516;11.890;2023-08-06T07:20:20;23.80;71.50
42145;DHT22;27813;43.516;11.890;2023-08-06T07:24:24;23.30;72.50
42145;DHT22;27813;43.516;11.890;2023-08-06T07:28:27;22.90;73.20
42145;DHT22;27813;43.516;11.890;2023-08-06T07:32:31;22.50;74.00
42145;DHT22;27813;43.516;11.890;2023-08-06T07:36:36;22.30;74.30
42145;DHT22;27813;43.516;11.890;2023-08-06T07:40:40;22.20;74.60
42145;DHT22;27813;43.516;11.890;2023-08-06T07:44:44;22.20;74.80
42145;DHT22;27813;43.516;11.890;2023-08-06T07:48:48;22.30;74.80
42145;DHT22;27813;43.516;11.890;2023-08-06T07:52:52;22.40;74.90
42145;DHT22;27813;43.516;11.890;2023-08-06T07:56:55;22.50;74.60
42145;DHT22;27813;43.516;11.890;2023-08-06T08:00:59;22.60;74.40
42145;DHT22;27813;43.516;11.890;2023-08-06T08:05:07;22.70;74.30
42145;DHT22;27813;43.516;11.890;2023-08-06T08:09:16;22.80;74.20
42145;DHT22;27813;43.516;11.890;2023-08-06T08:13:20;23.00;73.90
42145;DHT22;27813;43.516;11.890;2023-08-06T08:17:24;23.10;73.60
42145;DHT22;27813;43.516;11.890;2023-08-06T08:21:28;23.30;73.40
42145;DHT22;27813;43.516;11.890;2023-08-06T08:25:32;23.30;73.20
42145;DHT22;27813;43.516;11.890;2023-08-06T08:29:37;23.40;73.00
42145;DHT22;27813;43.516;11.890;2023-08-06T08:33:42;23.50;73.10
42145;DHT22;27813;43.516;11.890;2023-08-06T08:37:45;23.70;72.90
42145;DHT22;27813;43.516;11.890;2023-08-06T08:41:49;24.10;72.40
42145;DHT22;27813;43.516;11.890;2023-08-06T08:45:54;24.40;71.90
42145;DHT22;27813;43.516;11.890;2023-08-06T08:50:06;24.70;71.30
42145;DHT22;27813;43.516;11.890;2023-08-06T08:54:12;24.90;70.80
42145;DHT22;27813;43.516;11.890;2023-08-06T08:58:17;24.90;70.60
42145;DHT22;27813;43.516;11.890;2023-08-06T09:02:21;24.70;70.60
42145;DHT22;27813;43.516;11.890;2023-08-06T09:06:28;24.60;71.00
42145;DHT22;27813;43.516;11.890;2023-08-06T09:10:33;24.90;71.20
42145;DHT22;27813;43.516;11.890;2023-08-06T09:14:40;25.20;70.40
42145;DHT22;27813;43.516;11.890;2023-08-06T09:18:44;25.50;70.20
42145;DHT22;27813;43.516;11.890;2023-08-06T09:22:48;25.90;69.30
42145;DHT22;27813;43.516;11.890;2023-08-06T09:26:52;26.10;68.90
42145;DHT22;27813;43.516;11.890;2023-08-06T09:31:00;26.30;68.20
42145;DHT22;27813;43.516;11.890;2023-08-06T09:35:05;26.30;68.30
42145;DHT22;27813;43.516;11.890;2023-08-06T09:39:28;26.70;68.60
42145;DHT22;27813;43.516;11.890;2023-08-06T09:43:42;27.60;67.50
42145;DHT22;27813;43.516;11.890;2023-08-06T09:47:46;28.50;65.70
42145;DHT22;27813;43.516;11.890;2023-08-06T09:51:53;29.30;64.30
42145;DHT22;27813;43.516;11.890;2023-08-06T09:56:00;30.90;60.80
42145;DHT22;27813;43.516;11.890;2023-08-06T10:00:05;31.90;56.90
42145;DHT22;27813;43.516;11.890;2023-08-06T10:04:23;31.70;57.40
42145;DHT22;27813;43.516;11.890;2023-08-06T10:08:32;32.90;55.10
42145;DHT22;27813;43.516;11.890;2023-08-06T10:12:51;33.70;52.50
42145;DHT22;27813;43.516;11.890;2023-08-06T10:16:57;33.30;51.50
42145;DHT22;27813;43.516;11.890;2023-08-06T10:21:03;32.60;51.80
42145;DHT22;27813;43.516;11.890;2023-08-06T10:25:07;32.00;52.80
42145;DHT22;27813;43.516;11.890;2023-08-06T10:29:36;31.50;53.30
42145;DHT22;27813;43.516;11.890;2023-08-06T10:33:44;31.10;53.60
42145;DHT22;27813;43.516;11.890;2023-08-06T10:37:48;31.40;54.20
42145;DHT22;27813;43.516;11.890;2023-08-06T10:41:52;33.30;50.70
42145;DHT22;27813;43.516;11.890;2023-08-06T10:46:03;34.80;47.50
42145;DHT22;27813;43.516;11.890;2023-08-06T10:50:15;35.30;45.40
42145;DHT22;27813;43.516;11.890;2023-08-06T10:54:22;35.50;44.90
42145;DHT22;27813;43.516;11.890;2023-08-06T10:58:26;35.50;44.70
42145;DHT22;27813;43.516;11.890;2023-08-06T11:02:35;35.50;44.60
42145;DHT22;27813;43.516;11.890;2023-08-06T11:06:42;35.80;43.40
42145;DHT22;27813;43.516;11.890;2023-08-06T11:10:46;36.20;42.70
42145;DHT22;27813;43.516;11.890;2023-08-06T11:15:06;36.50;41.40
42145;DHT22;27813;43.516;11.890;2023-08-06T11:19:10;36.60;40.70
42145;DHT22;27813;43.516;11.890;2023-08-06T11:23:14;36.90;40.50
42145;DHT22;27813;43.516;11.890;2023-08-06T11:27:18;36.80;40.00
42145;DHT22;27813;43.516;11.890;2023-08-06T11:31:23;35.70;41.00
42145;DHT22;27813;43.516;11.890;2023-08-06T11:35:27;35.60;41.20
42145;DHT22;27813;43.516;11.890;2023-08-06T11:39:33;35.90;40.60
42145;DHT22;27813;43.516;11.890;2023-08-06T11:43:37;36.00;40.30
42145;DHT22;27813;43.516;11.890;2023-08-06T11:47:41;36.20;39.80
42145;DHT22;27813;43.516;11.890;2023-08-06T11:51:45;36.20;39.60
42145;DHT22;27813;43.516;11.890;2023-08-06T11:55:49;36.10;39.50
42145;DHT22;27813;43.516;11.890;2023-08-06T11:59:53;35.80;39.40
42145;DHT22;27813;43.516;11.890;2023-08-06T12:04:01;35.70;39.30
42145;DHT22;27813;43.516;11.890;2023-08-06T12:08:05;35.70;39.20
42145;DHT22;27813;43.516;11.890;2023-08-06T12:12:09;35.70;39.40
42145;DHT22;27813;43.516;11.890;2023-08-06T12:16:13;35.80;39.40
42145;DHT22;27813;43.516;11.890;2023-08-06T12:20:17;35.90;39.20
42145;DHT22;27813;43.516;11.890;2023-08-06T12:24:25;35.70;39.00
42145;DHT22;27813;43.516;11.890;2023-08-06T12:28:29;35.20;39.00
42145;DHT22;27813;43.516;11.890;2023-08-06T12:32:34;34.50;40.00
42145;DHT22;27813;43.516;11.890;2023-08-06T12:36:38;33.50;41.10
42145;DHT22;27813;43.516;11.890;2023-08-06T12:40:43;32.90;42.10
42145;DHT22;27813;43.516;11.890;2023-08-06T12:44:49;32.30;43.20
42145;DHT22;27813;43.516;11.890;2023-08-06T12:48:53;31.90;44.00
42145;DHT22;27813;43.516;11.890;2023-08-06T12:52:58;31.90;44.20
42145;DHT22;27813;43.516;11.890;2023-08-06T12:57:03;31.90;44.30
42145;DHT22;27813;43.516;11.890;2023-08-06T13:01:08;31.80;44.20
42145;DHT22;27813;43.516;11.890;2023-08-06T13:05:12;31.50;44.40
42145;DHT22;27813;43.516;11.890;2023-08-06T13:09:17;31.00;44.70
42145;DHT22;27813;43.516;11.890;2023-08-06T13:13:21;30.70;45.20
42145;DHT22;27813;43.516;11.890;2023-08-06T13:17:25;30.50;45.40
42145;DHT22;27813;43.516;11.890;2023-08-06T13:21:59;30.30;45.80
42145;DHT22;27813;43.516;11.890;2023-08-06T13:26:06;30.10;45.80
42145;DHT22;27813;43.516;11.890;2023-08-06T13:30:10;30.00;46.00
42145;DHT22;27813;43.516;11.890;2023-08-06T13:34:14;29.80;46.20
42145;DHT22;27813;43.516;11.890;2023-08-06T13:38:20;29.50;46.70
42145;DHT22;27813;43.516;11.890;2023-08-06T13:42:24;29.60;47.10
42145;DHT22;27813;43.516;11.890;2023-08-06T13:46:28;29.80;46.30
42145;DHT22;27813;43.516;11.890;2023-08-06T13:50:32;30.00;46.00
42145;DHT22;27813;43.516;11.890;2023-08-06T13:54:36;30.00;45.70
42145;DHT22;27813;43.516;11.890;2023-08-06T13:58:40;30.10;45.60
42145;DHT22;27813;43.516;11.890;2023-08-06T14:02:52;30.20;45.40
42145;DHT22;27813;43.516;11.890;2023-08-06T14:06:56;30.50;45.50
42145;DHT22;27813;43.516;11.890;2023-08-06T14:11:00;30.80;45.30
42145;DHT22;27813;43.516;11.890;2023-08-06T14:15:05;30.80;45.00
42145;DHT22;27813;43.516;11.890;2023-08-06T14:19:10;30.60;45.40
42145;DHT22;27813;43.516;11.890;2023-08-06T14:23:14;30.50;45.50
42145;DHT22;27813;43.516;11.890;2023-08-06T14:27:18;30.50;45.70
42145;DHT22;27813;43.516;11.890;2023-08-06T14:31:22;30.50;45.80
42145;DHT22;27813;43.516;11.890;2023-08-06T14:35:27;30.50;45.90
42145;DHT22;27813;43.516;11.890;2023-08-06T14:39:31;30.80;45.80
42145;DHT22;27813;43.516;11.890;2023-08-06T14:43:35;31.10;44.90
42145;DHT22;27813;43.516;11.890;2023-08-06T14:47:39;31.30;44.20
42145;DHT22;27813;43.516;11.890;2023-08-06T14:51:43;31.10;44.20
42145;DHT22;27813;43.516;11.890;2023-08-06T14:55:48;30.90;44.40
42145;DHT22;27813;43.516;11.890;2023-08-06T14:59:52;30.50;44.70
42145;DHT22;27813;43.516;11.890;2023-08-06T15:03:57;30.00;44.50
42145;DHT22;27813;43.516;11.890;2023-08-06T15:08:01;29.60;45.20
42145;DHT22;27813;43.516;11.890;2023-08-06T15:12:05;29.20;45.50
42145;DHT22;27813;43.516;11.890;2023-08-06T15:16:10;29.00;45.70
42145;DHT22;27813;43.516;11.890;2023-08-06T15:20:14;29.00;46.00
42145;DHT22;27813;43.516;11.890;2023-08-06T15:24:20;28.80;46.00
42145;DHT22;27813;43.516;11.890;2023-08-06T15:28:24;28.70;46.10
42145;DHT22;27813;43.516;11.890;2023-08-06T15:32:28;28.50;46.20
42145;DHT22;27813;43.516;11.890;2023-08-06T15:36:33;28.40;46.60
42145;DHT22;27813;43.516;11.890;2023-08-06T15:40:37;28.20;46.80
42145;DHT22;27813;43.516;11.890;2023-08-06T15:44:43;28.10;47.00
42145;DHT22;27813;43.516;11.890;2023-08-06T15:48:48;28.10;47.00
42145;DHT22;27813;43.516;11.890;2023-08-06T15:52:52;28.10;46.70
42145;DHT22;27813;43.516;11.890;2023-08-06T15:56:56;28.00;46.60
42145;DHT22;27813;43.516;11.890;2023-08-06T16:01:00;28.00;46.80
42145;DHT22;27813;43.516;11.890;2023-08-06T16:05:04;28.10;47.10
42145;DHT22;27813;43.516;11.890;2023-08-06T16:09:09;28.50;47.00
42145;DHT22;27813;43.516;11.890;2023-08-06T16:13:13;28.40;46.90
42145;DHT22;27813;43.516;11.890;2023-08-06T16:17:17;28.20;47.20
42145;DHT22;27813;43.516;11.890;2023-08-06T16:21:24;28.00;47.60
42145;DHT22;27813;43.516;11.890;2023-08-06T16:25:29;27.70;48.10
42145;DHT22;27813;43.516;11.890;2023-08-06T16:29:33;27.50;48.50
42145;DHT22;27813;43.516;11.890;2023-08-06T16:33:37;27.60;48.20
42145;DHT22;27813;43.516;11.890;2023-08-06T16:37:41;27.60;48.10
42145;DHT22;27813;43.516;11.890;2023-08-06T16:41:46;27.60;48.10
42145;DHT22;27813;43.516;11.890;2023-08-06T16:45:53;27.60;48.10
42145;DHT22;27813;43.516;11.890;2023-08-06T16:50:00;27.60;48.20
42145;DHT22;27813;43.516;11.890;2023-08-06T16:54:10;27.40;48.10
42145;DHT22;27813;43.516;11.890;2023-08-06T16:58:14;27.20;48.60
42145;DHT22;27813;43.516;11.890;2023-08-06T17:02:18;27.00;49.00
42145;DHT22;27813;43.516;11.890;2023-08-06T17:06:22;27.00;49.00
42145;DHT22;27813;43.516;11.890;2023-08-06T17:10:28;27.00;49.20
42145;DHT22;27813;43.516;11.890;2023-08-06T17:14:33;27.00;49.40
42145;DHT22;27813;43.516;11.890;2023-08-06T17:18:37;27.00;49.70
42145;DHT22;27813;43.516;11.890;2023-08-06T17:22:41;26.90;50.00
42145;DHT22;27813;43.516;11.890;2023-08-06T17:26:44;26.80;50.40
42145;DHT22;27813;43.516;11.890;2023-08-06T17:30:52;26.60;50.80
42145;DHT22;27813;43.516;11.890;2023-08-06T17:35:00;26.50;51.10
42145;DHT22;27813;43.516;11.890;2023-08-06T17:39:05;26.20;51.50
42145;DHT22;27813;43.516;11.890;2023-08-06T17:43:09;26.00;52.10
42145;DHT22;27813;43.516;11.890;2023-08-06T17:47:15;25.90;52.50
42145;DHT22;27813;43.516;11.890;2023-08-06T17:51:38;25.70;52.80
42145;DHT22;27813;43.516;11.890;2023-08-06T17:55:42;25.40;53.30
42145;DHT22;27813;43.516;11.890;2023-08-06T17:59:46;25.10;53.70
42145;DHT22;27813;43.516;11.890;2023-08-06T18:03:50;24.90;54.10
42145;DHT22;27813;43.516;11.890;2023-08-06T18:07:53;24.60;54.60
42145;DHT22;27813;43.516;11.890;2023-08-06T18:11:57;24.40;54.90
42145;DHT22;27813;43.516;11.890;2023-08-06T18:16:04;24.10;55.10
42145;DHT22;27813;43.516;11.890;2023-08-06T18:20:08;23.80;55.60
42145;DHT22;27813;43.516;11.890;2023-08-06T18:24:13;23.50;56.00
42145;DHT22;27813;43.516;11.890;2023-08-06T18:28:16;23.20;56.50
42145;DHT22;27813;43.516;11.890;2023-08-06T18:32:22;22.90;56.90
42145;DHT22;27813;43.516;11.890;2023-08-06T18:36:26;22.50;57.40
42145;DHT22;27813;43.516;11.890;2023-08-06T18:40:30;22.30;57.90
42145;DHT22;27813;43.516;11.890;2023-08-06T18:44:34;22.00;58.40
42145;DHT22;27813;43.516;11.890;2023-08-06T18:48:38;21.70;59.20
42145;DHT22;27813;43.516;11.890;2023-08-06T18:52:42;21.50;59.80
42145;DHT22;27813;43.516;11.890;2023-08-06T18:56:46;21.20;60.40
42145;DHT22;27813;43.516;11.890;2023-08-06T19:00:50;21.00;60.90
42145;DHT22;27813;43.516;11.890;2023-08-06T19:04:56;20.90;61.40
42145;DHT22;27813;43.516;11.890;2023-08-06T19:09:02;20.70;61.70
42145;DHT22;27813;43.516;11.890;2023-08-06T19:13:10;20.50;62.10
42145;DHT22;27813;43.516;11.890;2023-08-06T19:17:15;20.40;62.50
42145;DHT22;27813;43.516;11.890;2023-08-06T19:21:19;20.30;62.70
42145;DHT22;27813;43.516;11.890;2023-08-06T19:25:23;20.20;62.90
42145;DHT22;27813;43.516;11.890;2023-08-06T19:29:27;20.10;63.10
42145;DHT22;27813;43.516;11.890;2023-08-06T19:33:31;20.00;63.60
42145;DHT22;27813;43.516;11.890;2023-08-06T19:37:35;19.70;64.10
42145;DHT22;27813;43.516;11.890;2023-08-06T19:41:39;19.50;64.70
42145;DHT22;27813;43.516;11.890;2023-08-06T19:45:47;19.40;65.30
42145;DHT22;27813;43.516;11.890;2023-08-06T19:49:53;19.20;65.70
42145;DHT22;27813;43.516;11.890;2023-08-06T19:53:57;19.10;66.00
42145;DHT22;27813;43.516;11.890;2023-08-06T19:58:01;18.90;66.40
42145;DHT22;27813;43.516;11.890;2023-08-06T20:02:05;18.80;66.80
42145;DHT22;27813;43.516;11.890;2023-08-06T20:06:09;18.60;67.20
42145;DHT22;27813;43.516;11.890;2023-08-06T20:10:14;18.50;67.60
42145;DHT22;27813;43.516;11.890;2023-08-06T20:14:18;18.40;67.90
42145;DHT22;27813;43.516;11.890;2023-08-06T20:18:24;18.30;68.20
42145;DHT22;27813;43.516;11.890;2023-08-06T20:22:29;18.20;68.50
42145;DHT22;27813;43.516;11.890;2023-08-06T20:26:36;18.10;68.80
42145;DHT22;27813;43.516;11.890;2023-08-06T20:30:46;18.00;69.10
42145;DHT22;27813;43.516;11.890;2023-08-06T20:34:51;17.80;69.50
42145;DHT22;27813;43.516;11.890;2023-08-06T20:38:55;17.70;70.00
42145;DHT22;27813;43.516;11.890;2023-08-06T20:42:59;17.60;70.20
42145;DHT22;27813;43.516;11.890;2023-08-06T20:47:04;17.50;70.40
42145;DHT22;27813;43.516;11.890;2023-08-06T20:51:08;17.50;70.60
42145;DHT22;27813;43.516;11.890;2023-08-06T20:55:12;17.40;70.80
42145;DHT22;27813;43.516;11.890;2023-08-06T20:59:19;17.30;71.10
42145;DHT22;27813;43.516;11.890;2023-08-06T21:03:26;17.20;71.00
42145;DHT22;27813;43.516;11.890;2023-08-06T21:07:30;17.10;71.30
42145;DHT22;27813;43.516;11.890;2023-08-06T21:11:34;17.00;71.70
42145;DHT22;27813;43.516;11.890;2023-08-06T21:15:39;16.90;72.30
42145;DHT22;27813;43.516;11.890;2023-08-06T21:19:42;16.90;72.60
42145;DHT22;27813;43.516;11.890;2023-08-06T21:23:46;16.70;72.90
42145;DHT22;27813;43.516;11.890;2023-08-06T21:27:50;16.70;73.10
42145;DHT22;27813;43.516;11.890;2023-08-06T21:31:54;16.50;73.30
42145;DHT22;27813;43.516;11.890;2023-08-06T21:35:59;16.50;73.60
42145;DHT22;27813;43.516;11.890;2023-08-06T21:40:15;16.50;73.90
42145;DHT22;27813;43.516;11.890;2023-08-06T21:44:19;16.50;74.20
42145;DHT22;27813;43.516;11.890;2023-08-06T21:48:23;16.60;74.20
42145;DHT22;27813;43.516;11.890;2023-08-06T21:52:28;16.70;73.90
42145;DHT22;27813;43.516;11.890;2023-08-06T21:56:33;16.80;73.90
42145;DHT22;27813;43.516;11.890;2023-08-06T22:00:56;16.80;74.00
42145;DHT22;27813;43.516;11.890;2023-08-06T22:05:00;16.80;73.90
42145;DHT22;27813;43.516;11.890;2023-08-06T22:09:04;16.70;73.90
42145;DHT22;27813;43.516;11.890;2023-08-06T22:13:10;16.60;74.30
42145;DHT22;27813;43.516;11.890;2023-08-06T22:17:14;16.50;74.70
42145;DHT22;27813;43.516;11.890;2023-08-06T22:21:17;16.40;74.90
42145;DHT22;27813;43.516;11.890;2023-08-06T22:25:21;16.20;75.20
42145;DHT22;27813;43.516;11.890;2023-08-06T22:29:25;16.00;75.60
42145;DHT22;27813;43.516;11.890;2023-08-06T22:33:29;15.90;75.90
42145;DHT22;27813;43.516;11.890;2023-08-06T22:37:33;15.70;76.20
42145;DHT22;27813;43.516;11.890;2023-08-06T22:41:37;15.60;76.50
42145;DHT22;27813;43.516;11.890;2023-08-06T22:45:41;15.50;76.80
42145;DHT22;27813;43.516;11.890;2023-08-06T22:49:45;15.40;77.00
42145;DHT22;27813;43.516;11.890;2023-08-06T22:53:50;15.30;77.50
42145;DHT22;27813;43.516;11.890;2023-08-06T22:57:54;15.20;77.70
42145;DHT22;27813;43.516;11.890;2023-08-06T23:01:59;15.10;77.70
42145;DHT22;27813;43.516;11.890;2023-08-06T23:06:03;15.00;77.90
42145;DHT22;27813;43.516;11.890;2023-08-06T23:10:07;15.00;78.20
42145;DHT22;27813;43.516;11.890;2023-08-06T23:14:11;14.90;78.40
42145;DHT22;27813;43.516;11.890;2023-08-06T23:18:15;14.90;78.40
42145;DHT22;27813;43.516;11.890;2023-08-06T23:22:19;14.80;78.60
42145;DHT22;27813;43.516;11.890;2023-08-06T23:26:23;14.70;78.50
